createdAt,value
2022-08-11T00:01:15.876Z,18.54
2022-08-11T00:03:59.006Z,18.48
2022-08-11T00:06:32.393Z,18.46
2022-08-11T00:09:00.622Z,18.45
2022-08-11T00:11:48.034Z,18.32
2022-08-11T00:14:25.674Z,18.35
2022-08-11T00:17:12.957Z,18.31
2022-08-11T00:20:14.133Z,18.28
2022-08-11T00:22:38.035Z,18.24
2022-08-11T00:25:21.868Z,18.19
2022-08-11T00:27:48.805Z,18.18
2022-08-11T00:30:16.623Z,18.15
2022-08-11T00:32:54.487Z,18.10
2022-08-11T00:35:55.613Z,18.07
2022-08-11T00:38:14.213Z,18.04
2022-08-11T00:41:09.899Z,17.99
2022-08-11T00:43:50.052Z,17.96
2022-08-11T00:46:57.999Z,17.92
2022-08-11T00:49:36.321Z,17.90
2022-08-11T00:52:20.600Z,17.87
2022-08-11T00:55:11.813Z,17.83
2022-08-11T00:57:44.149Z,17.81
2022-08-11T01:00:14.793Z,17.78
2022-08-11T01:03:01.180Z,17.76
2022-08-11T01:06:01.226Z,17.71
2022-08-11T01:08:47.785Z,17.69
2022-08-11T01:11:24.994Z,17.67
2022-08-11T01:14:33.655Z,17.64
2022-08-11T01:17:26.506Z,17.61
2022-08-11T01:20:44.917Z,17.62
2022-08-11T01:23:31.593Z,17.58
2022-08-11T01:26:35.500Z,17.56
2022-08-11T01:29:23.922Z,17.52
2022-08-11T01:32:08.860Z,17.52
2022-08-11T01:35:14.083Z,17.48
2022-08-11T01:38:10.752Z,17.46
2022-08-11T01:40:52.241Z,17.46
2022-08-11T01:43:21.456Z,17.45
2022-08-11T01:46:04.273Z,17.41
2022-08-11T01:49:00.768Z,17.39
2022-08-11T01:52:14.665Z,17.37
2022-08-11T01:54:46.698Z,17.36
2022-08-11T01:57:20.848Z,17.34
2022-08-11T01:59:51.913Z,17.33
2022-08-11T02:02:23.515Z,17.32
2022-08-11T02:05:03.268Z,17.30
2022-08-11T02:08:08.345Z,17.25
2022-08-11T02:10:52.344Z,17.25
2022-08-11T02:13:57.588Z,17.21
2022-08-11T02:16:39.427Z,17.19
2022-08-11T02:19:22.238Z,17.16
2022-08-11T02:22:00.820Z,17.14
2022-08-11T02:24:34.708Z,17.11
2022-08-11T02:27:16.270Z,17.10
2022-08-11T02:30:01.627Z,17.07
2022-08-11T02:32:35.371Z,17.06
2022-08-11T02:35:08.380Z,17.04
2022-08-11T02:37:55.271Z,17.02
2022-08-11T02:41:00.275Z,16.96
2022-08-11T02:43:51.278Z,16.95
2022-08-11T02:46:20.234Z,16.93
2022-08-11T02:49:05.371Z,16.92
2022-08-11T02:52:03.506Z,16.90
2022-08-11T02:54:39.675Z,16.89
2022-08-11T02:57:36.158Z,16.86
2022-08-11T03:00:16.052Z,16.88
2022-08-11T03:02:55.552Z,16.86
2022-08-11T03:05:42.037Z,16.85
2022-08-11T03:08:44.060Z,16.82
2022-08-11T03:11:15.555Z,16.82
2022-08-11T03:13:49.524Z,16.80
2022-08-11T03:16:28.816Z,16.78
2022-08-11T03:19:11.782Z,16.75
2022-08-11T03:22:06.728Z,16.73
2022-08-11T03:24:46.125Z,16.68
2022-08-11T03:27:34.060Z,16.67
2022-08-11T03:30:15.884Z,16.57
2022-08-11T03:32:48.358Z,16.64
2022-08-11T03:35:21.634Z,16.65
2022-08-11T03:38:00.800Z,16.62
2022-08-11T03:40:41.241Z,16.60
2022-08-11T03:43:28.665Z,16.59
2022-08-11T03:46:04.105Z,16.58
2022-08-11T03:48:54.669Z,16.55
2022-08-11T03:51:51.608Z,16.55
2022-08-11T03:54:52.404Z,16.52
2022-08-11T03:57:57.951Z,16.49
2022-08-11T04:00:55.348Z,16.50
2022-08-11T04:03:59.100Z,16.48
2022-08-11T04:06:41.312Z,16.48
2022-08-11T04:09:32.608Z,16.48
2022-08-11T04:12:47.825Z,16.45
2022-08-11T04:16:13.421Z,16.43
2022-08-11T04:19:18.451Z,16.44
2022-08-11T04:21:57.125Z,16.46
2022-08-11T04:24:44.833Z,16.44
2022-08-11T04:28:04.644Z,16.44
2022-08-11T04:31:48.839Z,16.45
2022-08-11T04:34:24.461Z,16.46
2022-08-11T04:36:53.776Z,16.48
2022-08-11T04:39:57.932Z,16.49
2022-08-11T04:43:01.947Z,16.48
2022-08-11T04:46:05.790Z,16.50
2022-08-11T04:48:43.924Z,16.50
2022-08-11T04:51:39.305Z,16.51
2022-08-11T04:54:15.403Z,16.52
2022-08-11T04:56:44.893Z,16.54
2022-08-11T04:59:42.225Z,16.55
2022-08-11T05:02:28.221Z,16.56
2022-08-11T05:05:16.563Z,16.58
2022-08-11T05:07:52.050Z,16.61
2022-08-11T05:10:43.463Z,16.63
2022-08-11T05:13:12.245Z,16.67
2022-08-11T05:15:51.579Z,16.68
2022-08-11T05:18:24.370Z,16.73
2022-08-11T05:20:55.489Z,16.77
2022-08-11T05:23:27.021Z,16.80
2022-08-11T05:26:43.242Z,16.84
2022-08-11T05:28:54.383Z,16.89
2022-08-11T05:31:26.839Z,16.93
2022-08-11T05:34:00.256Z,16.99
2022-08-11T05:36:38.628Z,17.01
2022-08-11T05:39:15.004Z,17.05
2022-08-11T05:41:42.429Z,17.10
2022-08-11T05:44:21.143Z,17.12
2022-08-11T05:46:49.809Z,17.15
2022-08-11T05:49:16.461Z,17.19
2022-08-11T05:51:54.833Z,17.26
2022-08-11T05:54:29.295Z,17.31
2022-08-11T05:57:02.279Z,17.37
2022-08-11T05:59:29.570Z,17.44
2022-08-11T06:02:05.046Z,17.50
2022-08-11T06:04:32.677Z,17.58
2022-08-11T06:07:03.234Z,17.65
2022-08-11T06:09:50.354Z,17.73
2022-08-11T06:12:21.326Z,17.79
2022-08-11T06:14:53.726Z,17.88
2022-08-11T06:17:25.267Z,17.95
2022-08-11T06:20:05.545Z,18.03
2022-08-11T06:22:34.802Z,18.09
2022-08-11T06:25:04.337Z,18.16
2022-08-11T06:27:34.631Z,18.23
2022-08-11T06:30:03.523Z,18.30
2022-08-11T06:32:34.145Z,18.39
2022-08-11T06:35:21.265Z,18.47
2022-08-11T06:38:02.604Z,18.57
2022-08-11T06:40:47.837Z,18.68
2022-08-11T06:43:24.304Z,18.77
2022-08-11T06:46:11.299Z,18.86
2022-08-11T06:48:54.742Z,18.98
2022-08-11T06:51:22.857Z,19.09
2022-08-11T06:54:03.696Z,19.17
2022-08-11T06:56:41.805Z,19.27
2022-08-11T06:59:10.930Z,19.40
2022-08-11T07:01:52.753Z,19.51
2022-08-11T07:04:42.924Z,19.63
2022-08-11T07:07:46.422Z,19.75
2022-08-11T07:10:46.579Z,19.88
2022-08-11T07:13:43.161Z,20.03
2022-08-11T07:16:12.358Z,20.21
2022-08-11T07:18:41.022Z,20.36
2022-08-11T07:22:00.457Z,20.52
2022-08-11T07:24:01.511Z,20.65
2022-08-11T07:26:28.716Z,20.75
2022-08-11T07:28:56.399Z,20.84
2022-08-11T07:31:48.473Z,20.95
2022-08-11T07:34:18.397Z,21.05
2022-08-11T07:37:13.534Z,21.14
2022-08-11T07:39:42.862Z,21.26
2022-08-11T07:42:12.805Z,21.33
2022-08-11T07:44:42.287Z,21.44
2022-08-11T07:47:11.229Z,21.53
2022-08-11T07:49:39.766Z,21.61
2022-08-11T07:52:07.762Z,21.73
2022-08-11T07:54:36.473Z,21.78
2022-08-11T07:57:08.942Z,21.87
2022-08-11T08:00:03.728Z,21.97
2022-08-11T08:02:23.600Z,22.05
2022-08-11T08:04:51.539Z,22.14
2022-08-11T08:07:21.145Z,22.20
2022-08-11T08:09:49.233Z,22.28
2022-08-11T08:12:16.136Z,22.36
2022-08-11T08:14:42.966Z,22.46
2022-08-11T08:17:10.419Z,22.62
2022-08-11T08:20:04.399Z,22.61
2022-08-11T08:22:37.748Z,22.70
2022-08-11T08:25:07.967Z,22.73
2022-08-11T08:27:39.194Z,22.78
2022-08-11T08:30:07.180Z,22.94
2022-08-11T08:32:34.569Z,22.99
2022-08-11T08:35:03.091Z,23.03
2022-08-11T08:37:45.067Z,23.10
2022-08-11T08:40:14.639Z,23.13
2022-08-11T08:42:54.751Z,23.17
2022-08-11T08:45:22.321Z,23.28
2022-08-11T08:47:58.507Z,23.36
2022-08-11T08:50:28.036Z,23.43
2022-08-11T08:53:03.832Z,23.49
2022-08-11T08:55:31.275Z,23.56
2022-08-11T08:58:00.090Z,23.76
2022-08-11T09:00:39.580Z,23.90
2022-08-11T09:03:29.518Z,23.96
2022-08-11T09:05:55.369Z,24.01
2022-08-11T09:08:23.310Z,24.07
2022-08-11T09:10:51.197Z,24.14
2022-08-11T09:13:18.103Z,24.13
2022-08-11T09:15:45.594Z,24.15
2022-08-11T09:18:12.725Z,24.21
2022-08-11T09:20:39.846Z,24.27
2022-08-11T09:25:57.821Z,24.37
2022-08-11T09:28:27.802Z,24.45
2022-08-11T09:30:54.617Z,24.52
2022-08-11T09:33:23.130Z,24.60
2022-08-11T09:35:51.974Z,24.72
2022-08-11T09:38:21.034Z,24.77
2022-08-11T09:40:56.206Z,24.87
2022-08-11T09:43:25.061Z,24.92
2022-08-11T09:45:53.820Z,24.95
2022-08-11T09:48:23.050Z,25.03
2022-08-11T09:50:55.425Z,25.05
2022-08-11T09:53:35.731Z,25.14
2022-08-11T09:56:14.834Z,25.24
2022-08-11T09:58:44.474Z,25.29
2022-08-11T10:01:12.693Z,25.39
2022-08-11T10:03:42.927Z,25.46
2022-08-11T10:06:10.980Z,25.53
2022-08-11T10:08:40.734Z,25.68
2022-08-11T10:11:11.594Z,25.74
2022-08-11T10:13:44.061Z,25.85
2022-08-11T10:16:32.414Z,26.02
2022-08-11T10:19:01.787Z,26.05
2022-08-11T10:22:03.358Z,26.03
2022-08-11T10:24:30.271Z,26.04
2022-08-11T10:26:57.747Z,26.09
2022-08-11T10:29:37.437Z,26.19
2022-08-11T10:32:11.721Z,26.26
2022-08-11T10:34:41.026Z,26.36
2022-08-11T10:37:20.163Z,26.32
2022-08-11T10:39:50.492Z,26.41
2022-08-11T10:42:35.002Z,26.50
2022-08-11T10:45:08.355Z,26.52
2022-08-11T10:47:35.182Z,26.54
2022-08-11T10:50:12.657Z,26.60
2022-08-11T10:52:40.651Z,26.70
2022-08-11T10:55:07.687Z,26.76
2022-08-11T10:57:34.602Z,26.82
2022-08-11T11:00:02.020Z,26.90
2022-08-11T11:02:29.671Z,27.02
2022-08-11T11:05:07.867Z,27.11
2022-08-11T11:07:54.976Z,27.22
2022-08-11T11:10:21.774Z,27.27
2022-08-11T11:12:55.640Z,27.29
2022-08-11T11:15:24.969Z,27.30
2022-08-11T11:18:03.654Z,27.37
2022-08-11T11:20:47.477Z,27.39
2022-08-11T11:23:17.507Z,27.47
2022-08-11T11:25:57.141Z,27.51
2022-08-11T11:28:32.410Z,27.55
2022-08-11T11:31:10.334Z,27.58
2022-08-11T11:34:06.619Z,27.66
2022-08-11T11:36:47.469Z,27.70
2022-08-11T11:39:21.546Z,27.75
2022-08-11T11:41:51.827Z,27.80
2022-08-11T11:44:20.594Z,27.88
2022-08-11T11:46:47.772Z,27.94
2022-08-11T11:49:18.188Z,28.07
2022-08-11T11:51:50.190Z,28.11
2022-08-11T11:54:22.508Z,28.16
2022-08-11T11:56:49.955Z,28.21
2022-08-11T11:59:17.624Z,28.25
2022-08-11T12:01:50.190Z,28.30
2022-08-11T12:04:20.070Z,28.36
2022-08-11T12:06:47.459Z,28.38
2022-08-11T12:09:14.811Z,28.44
2022-08-11T12:11:43.492Z,28.50
2022-08-11T12:14:11.673Z,28.52
2022-08-11T12:16:42.586Z,28.60
2022-08-11T12:19:14.274Z,28.64
2022-08-11T12:21:41.915Z,28.73
2022-08-11T12:24:18.284Z,28.82
2022-08-11T12:26:46.397Z,28.95
2022-08-11T12:29:33.753Z,29.03
2022-08-11T12:32:00.618Z,29.10
2022-08-11T12:34:28.368Z,29.22
2022-08-11T12:36:57.417Z,29.15
2022-08-11T12:40:10.924Z,29.28
2022-08-11T12:42:17.387Z,29.29
2022-08-11T12:44:46.383Z,29.26
2022-08-11T12:47:17.980Z,29.29
2022-08-11T12:49:48.216Z,29.36
2022-08-11T12:52:21.405Z,29.47
2022-08-11T12:55:02.614Z,29.55
2022-08-11T12:57:37.286Z,29.70
2022-08-11T13:00:09.258Z,29.74
2022-08-11T13:02:38.214Z,29.82
2022-08-11T13:05:11.769Z,29.95
2022-08-11T13:07:50.033Z,30.03
2022-08-11T13:10:19.570Z,30.04
2022-08-11T13:12:46.216Z,30.08
2022-08-11T13:15:17.187Z,30.16
2022-08-11T13:17:44.551Z,30.18
2022-08-11T13:20:12.870Z,30.13
2022-08-11T13:22:42.190Z,30.15
2022-08-11T13:25:09.677Z,30.25
2022-08-11T13:27:44.055Z,30.33
2022-08-11T13:30:11.159Z,30.39
2022-08-11T13:32:40.740Z,30.47
2022-08-11T13:35:09.296Z,30.49
2022-08-11T13:38:19.498Z,30.50
2022-08-11T13:40:33.353Z,30.42
2022-08-11T13:43:14.760Z,30.33
2022-08-11T13:45:43.918Z,30.34
2022-08-11T13:48:12.343Z,30.31
2022-08-11T13:50:39.257Z,30.46
2022-08-11T13:53:06.237Z,30.38
2022-08-11T13:55:51.021Z,30.30
2022-08-11T13:58:38.756Z,30.33
2022-08-11T14:01:24.552Z,30.40
2022-08-11T14:04:29.662Z,30.44
2022-08-11T14:06:50.933Z,30.39
2022-08-11T14:09:26.316Z,30.42
2022-08-11T14:12:21.847Z,30.36
2022-08-11T14:14:50.059Z,30.33
2022-08-11T14:17:46.315Z,30.38
2022-08-11T14:20:40.153Z,30.45
2022-08-11T14:22:57.238Z,30.55
2022-08-11T14:26:00.391Z,30.60
2022-08-11T14:28:31.009Z,30.69
2022-08-11T14:31:01.600Z,30.83
2022-08-11T14:33:58.323Z,30.98
2022-08-11T14:36:16.068Z,31.04
2022-08-11T14:38:43.592Z,31.26
2022-08-11T14:41:11.092Z,31.31
2022-08-11T14:44:05.794Z,31.40
2022-08-11T14:46:25.657Z,31.36
2022-08-11T14:48:52.345Z,31.30
2022-08-11T14:51:22.105Z,31.29
2022-08-11T14:53:58.554Z,31.41
2022-08-11T14:56:25.552Z,31.64
2022-08-11T14:58:52.595Z,31.93
2022-08-11T15:01:19.758Z,32.16
2022-08-11T15:04:34.349Z,32.44
2022-08-11T15:06:33.663Z,32.56
2022-08-11T15:09:00.399Z,32.61
2022-08-11T15:11:31.446Z,32.69
2022-08-11T15:14:00.707Z,32.77
2022-08-11T15:16:28.627Z,32.72
2022-08-11T15:18:55.350Z,32.56
2022-08-11T15:21:21.999Z,32.43
2022-08-11T15:23:48.555Z,32.24
2022-08-11T15:26:28.450Z,31.93
2022-08-11T15:28:55.112Z,31.72
2022-08-11T15:31:25.000Z,31.57
2022-08-11T15:33:55.644Z,31.45
2022-08-11T15:36:24.369Z,31.25
2022-08-11T15:39:02.867Z,31.04
2022-08-11T15:41:58.849Z,30.82
2022-08-11T15:45:00.627Z,30.73
2022-08-11T15:47:21.546Z,30.61
2022-08-11T15:50:12.835Z,30.49
2022-08-11T15:53:04.370Z,30.49
2022-08-11T15:55:31.669Z,30.56
2022-08-11T15:58:01.195Z,30.66
2022-08-11T16:00:29.369Z,30.87
2022-08-11T16:02:57.936Z,31.17
2022-08-11T16:05:46.433Z,31.52
2022-08-11T16:08:17.129Z,31.95
2022-08-11T16:10:55.166Z,32.36
2022-08-11T16:13:24.357Z,32.62
2022-08-11T16:15:53.945Z,32.72
2022-08-11T16:18:24.880Z,32.80
2022-08-11T16:20:55.002Z,32.79
2022-08-11T16:23:23.711Z,32.93
2022-08-11T16:27:06.987Z,33.01
2022-08-11T16:28:40.688Z,33.12
2022-08-11T16:31:08.013Z,33.20
2022-08-11T16:33:49.947Z,33.33
2022-08-11T16:36:19.988Z,33.48
2022-08-11T16:38:47.365Z,33.48
2022-08-11T16:41:18.463Z,33.32
2022-08-11T16:43:47.928Z,33.31
2022-08-11T16:46:17.729Z,33.41
2022-08-11T16:48:48.396Z,33.49
2022-08-11T16:51:15.616Z,33.65
2022-08-11T16:53:59.607Z,33.78
2022-08-11T16:56:37.198Z,33.86
2022-08-11T16:59:08.588Z,33.97
2022-08-11T17:01:36.286Z,34.09
2022-08-11T17:04:07.080Z,33.93
2022-08-11T17:06:34.295Z,33.97
2022-08-11T17:09:04.060Z,33.80
2022-08-11T17:11:34.032Z,33.73
2022-08-11T17:14:07.018Z,33.78
2022-08-11T17:16:39.538Z,33.74
2022-08-11T17:19:12.808Z,33.61
2022-08-11T17:21:48.967Z,33.47
2022-08-11T17:24:16.791Z,33.39
2022-08-11T17:26:44.513Z,33.21
2022-08-11T17:29:13.422Z,33.36
2022-08-11T17:31:41.099Z,33.36
2022-08-11T17:34:08.278Z,33.24
2022-08-11T17:36:41.628Z,33.40
2022-08-11T17:39:13.504Z,33.33
2022-08-11T17:41:40.740Z,33.25
2022-08-11T17:44:08.149Z,33.17
2022-08-11T17:46:35.744Z,33.05
2022-08-11T17:49:03.192Z,32.87
2022-08-11T17:51:30.930Z,32.89
2022-08-11T17:54:10.210Z,32.65
2022-08-11T17:56:45.081Z,32.58
2022-08-11T17:59:13.106Z,32.39
2022-08-11T18:01:41.833Z,32.12
2022-08-11T18:04:13.543Z,31.77
2022-08-11T18:06:41.680Z,31.39
2022-08-11T18:09:13.190Z,30.97
2022-08-11T18:12:06.455Z,30.57
2022-08-11T18:14:28.790Z,30.14
2022-08-11T18:16:56.183Z,29.78
2022-08-11T18:19:22.915Z,29.43
2022-08-11T18:22:08.191Z,29.12
2022-08-11T18:24:47.081Z,28.77
2022-08-11T18:27:16.768Z,28.49
2022-08-11T18:29:51.522Z,28.22
2022-08-11T18:32:22.144Z,27.99
2022-08-11T18:34:52.587Z,27.78
2022-08-11T18:37:29.090Z,27.56
2022-08-11T18:40:05.649Z,27.33
2022-08-11T18:42:33.748Z,27.15
2022-08-11T18:45:02.996Z,26.88
2022-08-11T18:47:30.160Z,26.83
2022-08-11T18:50:03.799Z,26.68
2022-08-11T18:52:34.401Z,26.55
2022-08-11T18:55:03.125Z,26.41
2022-08-11T18:57:29.827Z,26.29
2022-08-11T19:00:02.463Z,26.18
2022-08-11T19:02:32.012Z,26.07
2022-08-11T19:05:09.062Z,25.96
2022-08-11T19:07:37.984Z,25.85
2022-08-11T19:10:05.739Z,25.77
2022-08-11T19:12:39.935Z,25.65
2022-08-11T19:15:09.016Z,25.55
2022-08-11T19:17:45.191Z,25.45
2022-08-11T19:20:17.322Z,25.33
2022-08-11T19:22:46.165Z,25.24
2022-08-11T19:25:15.216Z,25.14
2022-08-11T19:27:43.141Z,25.03
2022-08-11T19:30:13.411Z,24.83
2022-08-11T19:32:41.599Z,24.82
2022-08-11T19:35:10.075Z,24.73
2022-08-11T19:37:44.411Z,24.62
2022-08-11T19:40:12.693Z,24.53
2022-08-11T19:42:40.407Z,24.32
2022-08-11T19:45:07.213Z,24.21
2022-08-11T19:47:35.175Z,24.23
2022-08-11T19:50:03.511Z,24.15
2022-08-11T19:52:31.578Z,24.06
2022-08-11T19:54:59.592Z,23.98
2022-08-11T19:57:26.792Z,23.87
2022-08-11T19:59:53.449Z,23.81
2022-08-11T20:02:20.804Z,23.73
2022-08-11T20:04:47.522Z,23.65
2022-08-11T20:07:19.061Z,23.60
2022-08-11T20:10:04.605Z,23.41
2022-08-11T20:12:33.822Z,23.43
2022-08-11T20:15:00.986Z,23.39
2022-08-11T20:17:31.863Z,23.32
2022-08-11T20:22:49.471Z,23.16
2022-08-11T20:25:18.219Z,23.10
2022-08-11T20:27:46.588Z,23.04
2022-08-11T20:30:13.939Z,22.97
2022-08-11T20:32:42.140Z,22.90
2022-08-11T20:35:10.225Z,22.87
2022-08-11T20:37:37.322Z,22.69
2022-08-11T20:40:05.136Z,22.73
2022-08-11T20:42:33.607Z,22.70
2022-08-11T20:45:01.650Z,22.65
2022-08-11T20:47:28.688Z,22.60
2022-08-11T20:49:58.679Z,22.55
2022-08-11T20:52:30.196Z,22.50
2022-08-11T20:55:00.871Z,22.44
2022-08-11T20:57:35.530Z,22.39
2022-08-11T21:00:18.497Z,22.32
2022-08-11T21:03:05.239Z,22.24
2022-08-11T21:06:08.754Z,22.19
2022-08-11T21:08:29.457Z,22.12
2022-08-11T21:10:56.614Z,22.07
2022-08-11T21:13:29.308Z,22.04
2022-08-11T21:16:03.538Z,21.97
2022-08-11T21:18:34.116Z,21.93
2022-08-11T21:21:06.958Z,21.89
2022-08-11T21:23:35.080Z,21.83
2022-08-11T21:26:08.984Z,21.79
2022-08-11T21:28:39.563Z,21.77
2022-08-11T21:31:08.493Z,21.74
2022-08-11T21:33:36.532Z,21.72
2022-08-11T21:36:03.347Z,21.58
2022-08-11T21:38:31.372Z,21.65
2022-08-11T21:41:00.222Z,21.64
2022-08-11T21:43:31.155Z,21.62
2022-08-11T21:45:59.807Z,21.59
2022-08-11T21:48:27.958Z,21.55
2022-08-11T21:50:54.501Z,21.42
2022-08-11T21:53:21.450Z,21.48
2022-08-11T21:55:51.039Z,21.46
2022-08-11T21:58:17.958Z,21.42
2022-08-11T22:00:45.297Z,21.37
2022-08-11T22:03:13.065Z,21.32
2022-08-11T22:05:41.997Z,21.28
2022-08-11T22:08:09.300Z,21.23
2022-08-11T22:10:42.169Z,21.17
2022-08-11T22:13:13.516Z,21.10
2022-08-11T22:15:40.694Z,21.06
2022-08-11T22:18:07.319Z,21.01
2022-08-11T22:20:35.045Z,20.96
2022-08-11T22:23:02.720Z,20.92
2022-08-11T22:25:38.717Z,20.86
2022-08-11T22:28:05.723Z,20.82
2022-08-11T22:30:33.248Z,20.76
2022-08-11T22:33:02.311Z,20.74
2022-08-11T22:35:32.166Z,20.70
2022-08-11T22:37:59.912Z,20.66
2022-08-11T22:40:26.596Z,20.61
2022-08-11T22:42:53.252Z,20.59
2022-08-11T22:45:20.816Z,20.56
2022-08-11T22:47:49.347Z,20.52
2022-08-11T22:50:17.217Z,20.51
2022-08-11T22:52:44.887Z,20.48
2022-08-11T22:55:12.900Z,20.45
2022-08-11T22:57:40.439Z,20.33
2022-08-11T23:00:30.428Z,20.38
2022-08-11T23:02:58.468Z,20.36
2022-08-11T23:05:26.197Z,20.31
2022-08-11T23:07:53.454Z,20.27
2022-08-11T23:10:21.419Z,20.22
2022-08-11T23:12:48.679Z,20.18
2022-08-11T23:15:15.547Z,20.12
2022-08-11T23:17:42.626Z,20.09
2022-08-11T23:20:36.107Z,20.05
2022-08-11T23:22:57.901Z,20.00
2022-08-11T23:25:25.404Z,19.96
2022-08-11T23:27:52.963Z,19.91
2022-08-11T23:30:19.664Z,19.86
2022-08-11T23:32:51.213Z,19.81
2022-08-11T23:35:38.431Z,19.77
2022-08-11T23:38:06.747Z,19.71
2022-08-11T23:40:33.455Z,19.66
2022-08-11T23:43:00.975Z,19.61
2022-08-11T23:45:27.760Z,19.55
2022-08-11T23:47:54.426Z,19.50
2022-08-11T23:50:23.054Z,19.45
2022-08-11T23:52:52.144Z,19.39
2022-08-11T23:55:20.172Z,19.35
2022-08-11T23:57:48.920Z,19.27
